createdAt,value
2022-12-26T00:02:21.925Z,24.67
2022-12-26T00:04:53.279Z,21.40
2022-12-26T00:07:21.179Z,24.27
2022-12-26T00:09:49.923Z,26.10
2022-12-26T00:12:17.248Z,30.00
2022-12-26T00:14:44.613Z,28.37
2022-12-26T00:17:11.918Z,27.93
2022-12-26T00:19:42.102Z,26.87
2022-12-26T00:22:09.742Z,22.80
2022-12-26T00:24:37.706Z,33.60
2022-12-26T00:27:07.233Z,25.50
2022-12-26T00:29:34.476Z,24.67
2022-12-26T00:32:01.737Z,22.13
2022-12-26T00:34:29.170Z,24.73
2022-12-26T00:36:56.425Z,22.67
2022-12-26T00:39:23.724Z,23.90
2022-12-26T00:41:51.019Z,21.53
2022-12-26T00:44:18.307Z,23.30
2022-12-26T00:46:45.655Z,21.43
2022-12-26T00:49:12.947Z,21.60
2022-12-26T00:51:40.278Z,23.30
2022-12-26T00:54:07.609Z,22.27
2022-12-26T00:56:34.852Z,21.10
2022-12-26T00:59:02.131Z,23.37
2022-12-26T01:01:31.151Z,20.93
2022-12-26T01:03:59.037Z,23.37
2022-12-26T01:06:26.501Z,23.87
2022-12-26T01:08:54.105Z,25.83
2022-12-26T01:11:40.248Z,19.87
2022-12-26T01:14:09.434Z,22.80
2022-12-26T01:16:37.605Z,24.43
2022-12-26T01:19:04.952Z,27.20
2022-12-26T01:21:32.296Z,26.07
2022-12-26T01:23:59.693Z,25.83
2022-12-26T01:26:26.988Z,24.00
2022-12-26T01:28:54.316Z,28.80
2022-12-26T01:31:22.482Z,24.97
2022-12-26T01:33:49.925Z,25.57
2022-12-26T01:36:18.198Z,25.13
2022-12-26T01:38:45.711Z,25.37
2022-12-26T01:41:22.276Z,23.43
2022-12-26T01:43:55.382Z,23.13
2022-12-26T01:46:31.599Z,23.17
2022-12-26T01:49:00.876Z,19.63
2022-12-26T01:51:30.477Z,23.87
2022-12-26T01:54:40.219Z,24.73
2022-12-26T01:56:47.709Z,24.40
2022-12-26T01:59:19.559Z,24.93
2022-12-26T02:01:48.333Z,26.80
2022-12-26T02:04:37.009Z,22.13
2022-12-26T02:07:04.963Z,19.30
2022-12-26T02:09:32.354Z,22.53
2022-12-26T02:12:34.684Z,22.30
2022-12-26T02:14:50.966Z,20.10
2022-12-26T02:17:18.380Z,20.50
2022-12-26T02:19:55.538Z,20.70
2022-12-26T02:22:41.618Z,22.97
2022-12-26T02:25:28.079Z,22.93
2022-12-26T02:27:55.300Z,21.63
2022-12-26T02:30:52.057Z,21.27
2022-12-26T02:33:34.297Z,18.30
2022-12-26T02:36:13.925Z,21.47
2022-12-26T02:38:50.286Z,17.40
2022-12-26T02:41:17.522Z,22.13
2022-12-26T02:44:26.301Z,20.53
2022-12-26T02:47:13.796Z,19.07
2022-12-26T02:50:12.014Z,21.83
2022-12-26T02:53:08.651Z,24.23
2022-12-26T02:55:57.687Z,24.87
2022-12-26T02:58:48.768Z,21.07
2022-12-26T03:01:40.383Z,20.90
2022-12-26T03:04:29.429Z,23.90
2022-12-26T03:07:17.839Z,25.33
2022-12-26T03:10:05.794Z,25.40
2022-12-26T03:12:58.344Z,27.77
2022-12-26T03:15:27.149Z,32.60
2022-12-26T03:17:57.150Z,25.77
2022-12-26T03:20:28.067Z,28.03
2022-12-26T03:23:00.618Z,29.37
2022-12-26T03:25:49.529Z,29.50
2022-12-26T03:28:17.030Z,27.43
2022-12-26T03:30:50.436Z,29.17
2022-12-26T03:33:56.710Z,27.97
2022-12-26T03:36:42.725Z,27.57
2022-12-26T03:39:13.174Z,29.43
2022-12-26T03:42:14.606Z,28.00
2022-12-26T03:45:07.636Z,29.33
2022-12-26T03:48:05.510Z,28.87
2022-12-26T03:50:53.513Z,27.03
2022-12-26T03:53:44.953Z,26.23
2022-12-26T03:56:38.550Z,28.37
2022-12-26T03:59:30.182Z,23.77
2022-12-26T04:02:18.399Z,27.20
2022-12-26T04:05:05.489Z,24.07
2022-12-26T04:07:58.506Z,19.63
2022-12-26T04:10:53.573Z,20.33
2022-12-26T04:13:41.443Z,16.50
2022-12-26T04:16:52.535Z,17.63
2022-12-26T04:19:25.639Z,19.10
2022-12-26T04:22:13.746Z,19.37
2022-12-26T04:25:02.641Z,17.23
2022-12-26T04:27:50.716Z,19.53
2022-12-26T04:30:36.736Z,19.93
2022-12-26T04:33:30.446Z,20.50
2022-12-26T04:36:22.876Z,22.07
2022-12-26T04:39:12.788Z,17.63
2022-12-26T04:41:59.437Z,20.80
2022-12-26T04:44:27.630Z,21.80
2022-12-26T04:46:56.582Z,20.73
2022-12-26T04:49:42.819Z,20.17
2022-12-26T04:52:11.761Z,19.00
2022-12-26T04:54:39.347Z,24.23
2022-12-26T04:57:07.053Z,21.43
2022-12-26T04:59:34.707Z,23.13
2022-12-26T05:02:20.751Z,28.83
2022-12-26T05:05:06.759Z,25.40
2022-12-26T05:07:54.233Z,23.93
2022-12-26T05:10:26.297Z,24.93
2022-12-26T05:12:54.028Z,22.30
2022-12-26T05:15:21.777Z,23.53
2022-12-26T05:18:07.867Z,25.37
2022-12-26T05:20:47.433Z,24.73
2022-12-26T05:23:44.151Z,26.97
2022-12-26T05:26:35.402Z,24.57
2022-12-26T05:29:03.978Z,23.73
2022-12-26T05:31:35.991Z,28.23
2022-12-26T05:34:07.263Z,27.93
2022-12-26T05:36:39.596Z,25.40
2022-12-26T05:39:08.164Z,25.67
2022-12-26T05:41:35.943Z,25.47
2022-12-26T05:44:03.440Z,27.37
2022-12-26T05:46:31.009Z,23.80
2022-12-26T05:48:58.405Z,26.83
2022-12-26T05:51:25.903Z,25.70
2022-12-26T05:53:53.409Z,26.97
2022-12-26T05:56:21.502Z,23.43
2022-12-26T05:58:48.907Z,24.13
2022-12-26T06:01:18.519Z,22.53
2022-12-26T06:03:50.345Z,21.63
2022-12-26T06:06:18.076Z,26.10
2022-12-26T06:08:48.023Z,23.00
2022-12-26T06:11:15.403Z,25.67
2022-12-26T06:13:42.894Z,29.50
2022-12-26T06:16:14.801Z,23.90
2022-12-26T06:18:42.523Z,19.40
2022-12-26T06:21:11.163Z,21.73
2022-12-26T06:23:39.245Z,21.80
2022-12-26T06:26:07.843Z,24.90
2022-12-26T06:28:35.650Z,26.60
2022-12-26T06:31:04.521Z,25.77
2022-12-26T06:33:32.193Z,24.23
2022-12-26T06:36:03.344Z,25.13
2022-12-26T06:38:30.753Z,31.27
2022-12-26T06:40:58.144Z,24.80
2022-12-26T06:43:25.454Z,29.30
2022-12-26T06:45:59.670Z,27.27
2022-12-26T06:48:27.621Z,26.77
2022-12-26T06:50:55.485Z,27.33
2022-12-26T06:53:23.726Z,27.23
2022-12-26T06:55:51.620Z,26.73
2022-12-26T06:58:18.981Z,29.20
2022-12-26T07:00:46.374Z,28.47
2022-12-26T07:03:13.982Z,30.03
2022-12-26T07:05:41.398Z,28.20
2022-12-26T07:08:08.715Z,27.03
2022-12-26T07:10:37.168Z,25.43
2022-12-26T07:13:04.565Z,33.00
2022-12-26T07:15:32.181Z,26.63
2022-12-26T07:17:59.601Z,33.90
2022-12-26T07:20:26.976Z,26.97
2022-12-26T07:22:55.222Z,27.33
2022-12-26T07:25:22.628Z,31.63
2022-12-26T07:27:53.374Z,26.87
2022-12-26T07:30:20.732Z,30.20
2022-12-26T07:32:51.098Z,21.60
2022-12-26T07:35:19.381Z,27.90
2022-12-26T07:37:46.809Z,23.60
2022-12-26T07:40:14.219Z,23.50
2022-12-26T07:42:41.593Z,22.03
2022-12-26T07:45:09.244Z,22.73
2022-12-26T07:47:36.555Z,21.13
2022-12-26T07:50:03.941Z,17.20
2022-12-26T07:52:31.311Z,19.03
2022-12-26T07:54:58.680Z,20.80
2022-12-26T08:00:13.494Z,19.10
2022-12-26T08:02:41.338Z,20.10
2022-12-26T08:05:09.102Z,22.23
2022-12-26T08:07:36.468Z,25.27
2022-12-26T08:10:03.950Z,20.50
2022-12-26T08:12:33.317Z,17.93
2022-12-26T08:15:00.757Z,19.50
2022-12-26T08:17:28.230Z,17.00
2022-12-26T08:19:55.560Z,15.40
2022-12-26T08:22:23.521Z,16.63
2022-12-26T08:24:50.918Z,18.40
2022-12-26T08:27:18.243Z,14.53
2022-12-26T08:29:45.721Z,17.93
2022-12-26T08:32:13.081Z,15.70
2022-12-26T08:34:40.451Z,16.50
2022-12-26T08:37:08.782Z,14.87
2022-12-26T08:39:36.161Z,15.87
2022-12-26T08:42:03.710Z,15.87
2022-12-26T08:44:31.080Z,16.67
2022-12-26T08:46:59.082Z,16.23
2022-12-26T08:49:26.451Z,16.40
2022-12-26T08:51:53.772Z,15.77
2022-12-26T08:54:22.097Z,17.90
2022-12-26T08:56:49.511Z,19.03
2022-12-26T08:59:17.059Z,19.43
2022-12-26T09:01:45.120Z,19.43
2022-12-26T09:04:13.308Z,20.27
2022-12-26T09:06:41.552Z,25.30
2022-12-26T09:09:11.298Z,23.67
2022-12-26T09:11:39.168Z,22.13
2022-12-26T09:14:07.121Z,21.67
2022-12-26T09:16:39.974Z,25.30
2022-12-26T09:19:12.405Z,23.03
2022-12-26T09:21:39.842Z,30.87
2022-12-26T09:24:08.693Z,23.80
2022-12-26T09:26:36.075Z,20.00
2022-12-26T09:29:03.496Z,18.67
2022-12-26T09:31:32.421Z,19.42
2022-12-26T09:34:01.592Z,16.80
2022-12-26T09:36:30.407Z,15.53
2022-12-26T09:38:58.491Z,14.97
2022-12-26T09:41:37.373Z,14.50
2022-12-26T09:44:20.326Z,14.30
2022-12-26T09:46:57.150Z,17.13
2022-12-26T09:49:36.976Z,15.80
2022-12-26T09:52:10.866Z,15.60
2022-12-26T09:54:41.003Z,15.23
2022-12-26T09:57:15.260Z,17.83
2022-12-26T09:59:48.277Z,12.73
2022-12-26T10:02:20.743Z,12.57
2022-12-26T10:04:48.516Z,13.27
2022-12-26T10:07:18.869Z,14.90
2022-12-26T10:09:52.156Z,10.03
2022-12-26T10:12:37.536Z,18.33
2022-12-26T10:15:04.913Z,14.60
2022-12-26T10:17:38.176Z,17.30
2022-12-26T10:20:21.183Z,9.83
2022-12-26T10:22:55.885Z,10.97
2022-12-26T10:25:30.346Z,10.67
2022-12-26T10:28:01.764Z,11.83
2022-12-26T10:30:33.967Z,11.73
2022-12-26T10:33:03.479Z,16.80
2022-12-26T10:35:32.956Z,6.90
2022-12-26T10:38:12.618Z,9.17
2022-12-26T10:40:45.222Z,7.80
2022-12-26T10:43:21.848Z,5.27
2022-12-26T10:46:07.652Z,7.53
2022-12-26T10:48:34.921Z,10.20
2022-12-26T10:51:02.207Z,9.30
2022-12-26T10:53:29.468Z,10.43
2022-12-26T10:55:57.162Z,9.40
2022-12-26T10:58:33.300Z,8.43
2022-12-26T11:01:19.471Z,14.47
2022-12-26T11:03:54.985Z,5.67
2022-12-26T11:06:23.935Z,8.60
2022-12-26T11:08:51.268Z,10.67
2022-12-26T11:11:18.567Z,17.73
2022-12-26T11:14:02.108Z,9.90
2022-12-26T11:16:31.512Z,12.40
2022-12-26T11:18:59.327Z,11.07
2022-12-26T11:21:28.194Z,8.97
2022-12-26T11:24:21.743Z,7.77
2022-12-26T11:26:49.134Z,6.77
2022-12-26T11:29:16.461Z,8.13
2022-12-26T11:32:04.051Z,9.23
2022-12-26T11:34:34.607Z,3.60
2022-12-26T11:37:02.033Z,5.60
2022-12-26T11:39:34.073Z,2.83
2022-12-26T11:42:01.734Z,8.90
2022-12-26T11:44:34.114Z,8.73
2022-12-26T11:47:12.308Z,7.23
2022-12-26T11:49:58.361Z,9.07
2022-12-26T11:52:39.541Z,3.77
2022-12-26T11:55:25.356Z,7.17
2022-12-26T11:58:06.495Z,8.07
2022-12-26T12:00:35.012Z,12.23
2022-12-26T12:03:02.929Z,3.30
2022-12-26T12:05:37.635Z,4.80
2022-12-26T12:08:17.094Z,7.23
2022-12-26T12:11:03.174Z,7.43
2022-12-26T12:13:40.424Z,5.97
2022-12-26T12:16:21.165Z,5.03
2022-12-26T12:19:04.439Z,7.27
2022-12-26T12:21:40.548Z,7.83
2022-12-26T12:24:13.925Z,3.07
2022-12-26T12:26:57.568Z,7.67
2022-12-26T12:29:33.137Z,7.03
2022-12-26T12:32:03.422Z,6.93
2022-12-26T12:34:45.292Z,5.40
2022-12-26T12:37:31.450Z,3.30
2022-12-26T12:39:58.613Z,7.43
2022-12-26T12:42:39.903Z,4.90
2022-12-26T12:45:20.997Z,6.27
2022-12-26T12:47:56.382Z,8.37
2022-12-26T12:50:36.403Z,4.83
2022-12-26T12:53:10.068Z,8.63
2022-12-26T12:55:59.935Z,3.30
2022-12-26T12:58:36.364Z,7.43
2022-12-26T13:01:06.985Z,6.77
2022-12-26T13:04:09.870Z,6.10
2022-12-26T13:06:41.709Z,7.43
2022-12-26T13:09:17.473Z,3.03
2022-12-26T13:11:56.915Z,0.63
2022-12-26T13:14:26.550Z,1.13
2022-12-26T13:17:06.555Z,3.73
2022-12-26T13:19:46.282Z,1.70
2022-12-26T13:22:26.191Z,4.93
2022-12-26T13:24:57.421Z,2.23
2022-12-26T13:27:32.215Z,6.20
2022-12-26T13:29:59.494Z,5.10
2022-12-26T13:32:31.613Z,2.37
2022-12-26T13:35:00.126Z,7.30
2022-12-26T13:37:39.873Z,2.70
2022-12-26T13:40:07.518Z,4.73
2022-12-26T13:43:19.679Z,4.70
2022-12-26T13:45:55.155Z,8.37
2022-12-26T13:48:22.404Z,6.10
2022-12-26T13:50:55.576Z,6.00
2022-12-26T13:53:27.123Z,9.00
2022-12-26T13:55:54.997Z,6.00
2022-12-26T13:58:28.176Z,5.77
2022-12-26T14:01:00.598Z,12.00
2022-12-26T14:03:33.834Z,19.63
2022-12-26T14:06:11.784Z,9.93
2022-12-26T14:08:52.994Z,3.70
2022-12-26T14:11:41.530Z,2.37
2022-12-26T14:14:21.871Z,8.63
2022-12-26T14:17:08.232Z,4.23
2022-12-26T14:19:54.054Z,7.30
2022-12-26T14:22:38.472Z,3.07
2022-12-26T14:25:24.679Z,6.43
2022-12-26T14:27:59.522Z,11.53
2022-12-26T14:30:34.820Z,11.10
2022-12-26T14:33:17.313Z,4.50
2022-12-26T14:36:03.366Z,3.87
2022-12-26T14:38:36.441Z,5.50
2022-12-26T14:41:08.338Z,14.83
2022-12-26T14:43:36.721Z,13.30
2022-12-26T14:46:37.500Z,3.63
2022-12-26T14:49:26.421Z,12.83
2022-12-26T14:52:16.497Z,13.47
2022-12-26T14:54:50.776Z,9.17
2022-12-26T14:57:37.265Z,8.13
2022-12-26T15:00:16.877Z,17.83
2022-12-26T15:02:46.816Z,16.37
2022-12-26T15:05:16.976Z,14.60
2022-12-26T15:07:47.203Z,13.40
2022-12-26T15:10:26.654Z,9.93
2022-12-26T15:13:12.682Z,11.33
2022-12-26T15:15:39.974Z,10.27
2022-12-26T15:18:17.651Z,13.83
2022-12-26T15:20:54.162Z,11.50
2022-12-26T15:23:46.345Z,24.83
2022-12-26T15:26:25.525Z,12.33
2022-12-26T15:29:11.599Z,12.10
2022-12-26T15:31:42.959Z,17.03
2022-12-26T15:34:29.015Z,10.83
2022-12-26T15:37:00.458Z,12.20
2022-12-26T15:39:43.412Z,18.63
2022-12-26T15:42:22.824Z,14.77
2022-12-26T15:45:16.603Z,22.77
2022-12-26T15:47:50.049Z,13.53
2022-12-26T15:50:40.494Z,10.87
2022-12-26T15:53:21.695Z,14.93
2022-12-26T15:56:08.406Z,10.40
2022-12-26T15:58:35.672Z,10.53
2022-12-26T16:01:03.060Z,13.30
2022-12-26T16:03:52.265Z,10.20
2022-12-26T16:06:22.500Z,13.80
2022-12-26T16:09:04.548Z,15.27
2022-12-26T16:11:43.238Z,15.43
2022-12-26T16:17:16.171Z,12.07
2022-12-26T16:19:44.527Z,14.43
2022-12-26T16:22:43.911Z,13.87
2022-12-26T16:25:19.203Z,12.40
2022-12-26T16:27:47.393Z,17.43
2022-12-26T16:30:17.212Z,21.13
2022-12-26T16:32:44.897Z,15.00
2022-12-26T16:35:20.117Z,18.10
2022-12-26T16:37:47.909Z,15.47
2022-12-26T16:40:15.810Z,14.67
2022-12-26T16:42:44.028Z,18.33
2022-12-26T16:45:19.921Z,19.90
2022-12-26T16:47:48.414Z,15.07
2022-12-26T16:50:17.278Z,17.43
2022-12-26T16:52:46.921Z,16.10
2022-12-26T16:55:28.015Z,15.20
2022-12-26T16:57:57.037Z,28.57
2022-12-26T17:00:25.032Z,15.67
2022-12-26T17:02:53.916Z,20.57
2022-12-26T17:05:36.150Z,23.17
2022-12-26T17:08:04.327Z,28.30
2022-12-26T17:10:33.599Z,38.13
2022-12-26T17:13:02.422Z,29.17
2022-12-26T17:15:31.461Z,24.90
2022-12-26T17:18:00.421Z,19.57
2022-12-26T17:20:32.863Z,28.40
2022-12-26T17:23:00.215Z,22.07
2022-12-26T17:25:31.197Z,12.60
2022-12-26T17:28:17.847Z,18.40
2022-12-26T17:30:46.249Z,30.33
2022-12-26T17:33:16.264Z,15.70
2022-12-26T17:36:38.061Z,13.80
2022-12-26T17:38:33.185Z,12.40
2022-12-26T17:41:03.659Z,21.87
2022-12-26T17:43:32.351Z,19.77
2022-12-26T17:46:00.139Z,19.97
2022-12-26T17:48:27.658Z,20.67
2022-12-26T17:50:57.047Z,18.23
2022-12-26T17:53:31.318Z,36.43
2022-12-26T17:56:00.606Z,15.47
2022-12-26T17:58:29.180Z,21.63
2022-12-26T18:00:56.672Z,13.47
2022-12-26T18:03:24.077Z,19.47
2022-12-26T18:05:51.505Z,24.33
2022-12-26T18:08:31.636Z,19.33
2022-12-26T18:10:59.755Z,10.00
2022-12-26T18:13:27.348Z,12.67
2022-12-26T18:15:56.260Z,18.20
2022-12-26T18:18:27.597Z,21.77
2022-12-26T18:20:55.046Z,19.17
2022-12-26T18:23:23.040Z,17.00
2022-12-26T18:25:54.436Z,20.33
2022-12-26T18:28:22.195Z,17.37
2022-12-26T18:30:49.652Z,41.53
2022-12-26T18:33:17.006Z,20.70
2022-12-26T18:35:44.980Z,21.27
2022-12-26T18:38:14.334Z,10.47
2022-12-26T18:40:43.558Z,22.27
2022-12-26T18:43:11.018Z,14.93
2022-12-26T18:45:39.102Z,31.03
2022-12-26T18:48:07.626Z,20.83
2022-12-26T18:50:35.661Z,22.03
2022-12-26T18:53:03.414Z,12.27
2022-12-26T18:55:30.789Z,18.63
2022-12-26T18:57:58.273Z,20.33
2022-12-26T19:00:26.128Z,23.50
2022-12-26T19:02:55.548Z,13.40
2022-12-26T19:05:26.209Z,17.33
2022-12-26T19:07:54.366Z,24.00
2022-12-26T19:10:22.959Z,20.50
2022-12-26T19:12:50.728Z,19.07
2022-12-26T19:15:18.429Z,20.23
2022-12-26T19:17:45.841Z,21.73
2022-12-26T19:20:21.621Z,14.77
2022-12-26T19:22:50.059Z,13.63
2022-12-26T19:25:18.355Z,15.83
2022-12-26T19:27:45.831Z,18.97
2022-12-26T19:30:13.485Z,16.57
2022-12-26T19:32:40.977Z,17.17
2022-12-26T19:35:08.572Z,16.77
2022-12-26T19:37:36.046Z,23.67
2022-12-26T19:40:03.833Z,24.70
2022-12-26T19:42:34.558Z,18.93
2022-12-26T19:45:02.230Z,9.10
2022-12-26T19:47:29.580Z,8.50
2022-12-26T19:49:56.974Z,14.37
2022-12-26T19:52:24.835Z,14.00
2022-12-26T19:54:52.220Z,14.60
2022-12-26T19:57:19.729Z,18.40
2022-12-26T19:59:47.117Z,17.37
2022-12-26T20:02:14.669Z,10.60
2022-12-26T20:04:42.193Z,19.80
2022-12-26T20:07:09.544Z,19.33
2022-12-26T20:09:37.006Z,14.67
2022-12-26T20:12:04.916Z,21.13
2022-12-26T20:14:32.989Z,31.75
2022-12-26T20:17:06.236Z,26.33
2022-12-26T20:19:34.043Z,30.07
2022-12-26T20:22:01.481Z,21.55
2022-12-26T20:24:29.078Z,35.83
2022-12-26T20:26:56.553Z,11.77
2022-12-26T20:29:24.000Z,19.53
2022-12-26T20:31:55.036Z,19.63
2022-12-26T20:34:22.563Z,22.40
2022-12-26T20:36:49.996Z,15.77
2022-12-26T20:39:18.496Z,4.17
2022-12-26T20:41:46.163Z,10.40
2022-12-26T20:44:13.906Z,14.30
2022-12-26T20:46:42.179Z,16.43
2022-12-26T20:49:09.958Z,7.37
2022-12-26T20:51:38.735Z,14.13
2022-12-26T20:54:07.029Z,16.37
2022-12-26T20:56:34.847Z,16.53
2022-12-26T20:59:03.263Z,11.70
2022-12-26T21:01:31.008Z,11.03
2022-12-26T21:03:58.792Z,19.00
2022-12-26T21:06:28.871Z,13.67
2022-12-26T21:08:57.692Z,19.80
2022-12-26T21:11:27.157Z,22.97
2022-12-26T21:13:58.742Z,9.97
2022-12-26T21:16:28.247Z,11.30
2022-12-26T21:18:55.976Z,10.73
2022-12-26T21:21:27.702Z,8.20
2022-12-26T21:23:56.826Z,10.77
2022-12-26T21:26:24.923Z,17.17
2022-12-26T21:28:59.852Z,12.67
2022-12-26T21:31:27.690Z,16.47
2022-12-26T21:33:55.938Z,12.20
2022-12-26T21:36:23.411Z,15.30
2022-12-26T21:38:50.783Z,20.37
2022-12-26T21:41:18.159Z,12.63
2022-12-26T21:43:45.707Z,9.57
2022-12-26T21:46:17.412Z,11.10
2022-12-26T21:48:47.006Z,16.27
2022-12-26T21:51:15.519Z,10.73
2022-12-26T21:53:43.559Z,11.07
2022-12-26T21:56:11.773Z,20.70
2022-12-26T21:58:57.645Z,12.03
2022-12-26T22:01:25.903Z,14.95
2022-12-26T22:04:12.303Z,19.48
2022-12-26T22:06:40.169Z,12.03
2022-12-26T22:09:08.012Z,16.60
2022-12-26T22:11:54.138Z,10.67
2022-12-26T22:14:22.006Z,14.87
2022-12-26T22:16:53.264Z,5.90
2022-12-26T22:19:20.674Z,16.73
2022-12-26T22:21:48.039Z,10.90
2022-12-26T22:24:15.354Z,8.73
2022-12-26T22:26:42.727Z,18.07
2022-12-26T22:29:10.099Z,6.63
2022-12-26T22:31:38.631Z,9.80
2022-12-26T22:34:07.421Z,4.87
2022-12-26T22:36:35.392Z,16.17
2022-12-26T22:39:02.860Z,17.43
2022-12-26T22:41:30.423Z,7.73
2022-12-26T22:43:57.743Z,8.77
2022-12-26T22:46:25.239Z,17.83
2022-12-26T22:48:52.786Z,5.93
2022-12-26T22:51:21.714Z,8.03
2022-12-26T22:53:49.301Z,10.03
2022-12-26T22:56:16.639Z,19.10
2022-12-26T22:58:43.921Z,9.43
2022-12-26T23:01:15.332Z,12.87
2022-12-26T23:03:42.689Z,12.33
2022-12-26T23:06:23.778Z,12.37
2022-12-26T23:08:52.856Z,11.33
2022-12-26T23:11:20.424Z,10.47
2022-12-26T23:13:48.001Z,7.57
2022-12-26T23:16:27.945Z,10.13
2022-12-26T23:19:17.130Z,14.77
2022-12-26T23:21:48.622Z,7.63
2022-12-26T23:24:23.615Z,11.80
2022-12-26T23:26:52.661Z,14.60
2022-12-26T23:29:39.983Z,9.30
2022-12-26T23:32:08.000Z,9.40
2022-12-26T23:34:35.376Z,13.70
2022-12-26T23:37:03.733Z,8.33
2022-12-26T23:39:30.988Z,16.30
2022-12-26T23:41:58.248Z,13.80
2022-12-26T23:44:25.474Z,11.30
2022-12-26T23:46:52.800Z,14.80
2022-12-26T23:49:20.248Z,10.70
2022-12-26T23:51:47.571Z,15.33
2022-12-26T23:54:14.967Z,9.53
2022-12-26T23:56:42.223Z,15.03
2022-12-26T23:59:09.707Z,15.13
